Flight Track Log - Related Links

Times and Time Zones

All times are in EDT time to prevent confusion due to time zone crossing. See the JBU185 flight status page for this flight to view local times or setup timezone preferences in your user account.


Time Position Orientation Groundspeed Altitude Reporting Facility
EDT Latitude Longitude Course Direction KTS MPH feet Rate Location/Type
Tue 05:18:45 PM 40.6333 -73.8667 270° West 192 221 2,200  Level New York TRACON
Tue 05:19:45 PM 40.5833 -73.9167 217° Southwest 265 305 3,900 2,400 Climbing New York TRACON
Tue 05:20:00 PM 40.4222 -74.1168 229° Southwest  Level FlightAware Approximate
Tue 05:20:45 PM 40.5167 -73.9667 210° Southwest 271 312 7,000  Level New York TRACON
Tue 05:21:00 PM 40.3476 -74.2318 232° Southwest  Level FlightAware Approximate
Tue 05:21:45 PM 40.4500 -74.0333 217° Southwest 282 325 9,600  Level New York TRACON
Tue 05:22:00 PM 40.2765 -74.3504 232° Southwest  Level FlightAware Approximate
Tue 05:22:45 PM 40.4000 -74.1167 232° Southwest 300 345 11,200  Level New York TRACON
Tue 05:23:00 PM 40.2041 -74.4613 226° Southwest  Level FlightAware Approximate
Tue 05:23:29 PM 40.3731 -74.1736 238° Southwest 339 390 12,000  Level New York Center
Tue 05:24:00 PM 40.1833 -74.6032 270° West  Level FlightAware Approximate
Tue 05:24:30 PM 40.3111 -74.2903 235° Southwest 362 417 14,400  Level New York Center
Tue 05:25:30 PM 40.2625 -74.3858 236° Southwest 367 422 16,300 1,462 Climbing New York Center
Tue 05:26:29 PM 40.2025 -74.5050 237° Southwest 367 422 17,300 1,300 Climbing New York Center
Tue 05:27:30 PM 40.1897 -74.6400 263° West 367 422 18,900 1,664 Climbing New York Center
Tue 05:28:28 PM 40.1786 -74.7833 264° West 386 444 20,600 1,462 Climbing New York Center
Tue 05:29:29 PM 40.1722 -74.9081 266° West 386 444 21,800 1,180 Climbing New York Center
Tue 05:30:30 PM 40.1589 -75.0486 263° West 386 444 23,000 1,240 Climbing New York Center
Tue 05:31:30 PM 40.1475 -75.1917 264° West 396 456 24,300 1,169 Climbing New York Center
Tue 05:32:28 PM 40.1356 -75.3375 264° West 401 461 25,300 1,017 Climbing New York Center
Tue 05:33:28 PM 40.1233 -75.4889 264° West 414 476 26,300 942 Climbing New York Center
Tue 05:34:29 PM 40.1111 -75.6400 264° West 419 482 27,200 843 Climbing New York Center
Tue 05:35:29 PM 40.0983 -75.7911 264° West 424 488 28,000 992 Climbing New York Center
Tue 05:36:30 PM 40.0833 -75.9447 263° West 424 488 29,200 1,109 Climbing New York Center
Tue 05:37:28 PM 40.0706 -76.0956 264° West 424 488 30,200 1,068 Climbing New York Center
Tue 05:38:28 PM 40.0508 -76.2486 260° West 424 488 31,300 850 Climbing New York Center
Tue 05:39:28 PM 40.0375 -76.3994 263° West 424 488 31,900 347 Climbing New York Center
Tue 05:40:29 PM 40.0322 -76.5511 267° West 424 488 32,000 50 Climbing New York Center
Tue 05:41:29 PM 40.0350 -76.7058 271° West 419 482 32,000  Level New York Center
Tue 05:42:28 PM 40.0358 -76.8522 270° West 419 482 32,000  Level New York Center
Tue 05:43:29 PM 40.0364 -77.0017 270° West 419 482 32,000  Level New York Center
Tue 05:44:29 PM 40.0411 -77.1483 272° West 419 482 32,000 38 Level New York Center
Tue 05:46:09 PM 40.0414 -77.3992 270° West 412 474 32,100 38 Climbing Cleveland Center
Tue 05:47:09 PM 40.0436 -77.5539 271° West 418 481 32,100 -50 Level Cleveland Center
Tue 05:48:09 PM 40.0475 -77.7028 272° West 418 481 32,000 -50 Descending Cleveland Center
Tue 05:49:09 PM 40.0553 -77.8544 274° West 418 481 32,000  Level Cleveland Center
Tue 05:50:09 PM 40.0544 -78.0008 270° West 418 481 32,000  Level Cleveland Center
Tue 05:51:09 PM 40.0600 -78.1500 273° West 418 481 32,000  Level Cleveland Center
Tue 05:52:10 PM 40.0650 -78.2989 273° West 418 481 32,000  Level Cleveland Center
Tue 05:53:09 PM 40.0681 -78.4508 272° West 418 481 32,000  Level Cleveland Center
Tue 05:54:09 PM 40.0708 -78.6025 271° West 418 481 32,000  Level Cleveland Center
Tue 05:55:09 PM 40.0733 -78.7544 271° West 418 481 32,000  Level Cleveland Center
Tue 05:56:09 PM 40.0778 -78.9064 272° West 418 481 32,000 50 Level Cleveland Center
Tue 05:57:09 PM 40.0800 -79.0581 271° West 418 481 32,100  Climbing Cleveland Center
Tue 05:58:09 PM 40.0839 -79.2072 272° West 418 481 32,000 -50 Descending Cleveland Center
Tue 05:59:09 PM 40.0878 -79.3672 272° West 418 481 32,000  Level Cleveland Center
Tue 06:00:09 PM 40.0914 -79.5111 272° West 413 475 32,000  Level Cleveland Center
Tue 06:01:09 PM 40.0925 -79.6603 271° West 408 470 32,000  Level Cleveland Center
Tue 06:02:09 PM 40.0936 -79.8069 271° West 408 470 32,000 50 Level Cleveland Center
Tue 06:03:09 PM 40.0967 -79.9561 272° West 408 470 32,100  Climbing Cleveland Center
Tue 06:04:09 PM 40.0994 -80.1081 271° West 415 478 32,000  Descending Cleveland Center
Tue 06:05:09 PM 40.1000 -80.2575 270° West 421 484 32,100 50 Climbing Cleveland Center
Tue 06:06:09 PM 40.1003 -80.3903 270° West 421 484 32,100 -50 Level Cleveland Center
Tue 06:07:09 PM 40.1006 -80.5422 270° West 421 484 32,000 -50 Descending Cleveland Center
Tue 06:08:09 PM 40.1025 -80.6889 271° West 421 484 32,000  Level Cleveland Center
Tue 06:09:09 PM 40.1044 -80.8356 271° West 416 479 32,000  Level Cleveland Center
Tue 06:11:05 PM 40.1006 -81.1153 269° West 401 461 32,000  Level Indianapolis Center
Tue 06:12:07 PM 40.1003 -81.2881 270° West 405 466 32,000  Level Indianapolis Center
Tue 06:13:09 PM 40.1003 -81.4339 270° West 400 460 32,000  Level Indianapolis Center
Tue 06:14:11 PM 40.1000 -81.5833 270° West 406 467 32,000  Level Indianapolis Center
Tue 06:15:13 PM 40.0989 -81.7325 269° West 407 468 32,000  Level Indianapolis Center
Tue 06:16:15 PM 40.0989 -81.8725 270° West 401 461 32,000  Level Indianapolis Center
Tue 06:17:17 PM 40.0981 -82.0219 270° West 407 468 32,000  Level Indianapolis Center
Tue 06:18:19 PM 40.0967 -82.1975 269° West 410 472 32,000  Level Indianapolis Center
Tue 06:19:21 PM 40.0947 -82.3464 269° West 408 470 32,000  Level Indianapolis Center
Tue 06:20:23 PM 40.0725 -82.4933 259° West 413 475 32,000  Level Indianapolis Center
Tue 06:21:25 PM 40.0350 -82.6333 251° West 406 467 32,000 -48 Level Indianapolis Center
Tue 06:22:27 PM 39.9975 -82.7758 251° West 412 474 31,900  Descending Indianapolis Center
Tue 06:23:29 PM 39.9753 -82.9200 259° West 409 471 32,000 48 Climbing Indianapolis Center
Tue 06:24:31 PM 39.9742 -83.0939 270° West 408 470 32,000  Level Indianapolis Center
Tue 06:25:33 PM 39.9731 -83.2428 269° West 410 472 32,000  Level Indianapolis Center
Tue 06:26:35 PM 39.9711 -83.3906 269° West 410 472 32,000  Level Indianapolis Center
Tue 06:27:37 PM 39.9694 -83.5375 269° West 411 473 32,000 336 Level Indianapolis Center
Tue 06:28:40 PM 39.9672 -83.6850 269° West 411 473 32,700 816 Climbing Indianapolis Center
Tue 06:29:42 PM 39.9647 -83.8564 269° West 406 467 33,700 823 Climbing Indianapolis Center
Tue 06:30:44 PM 39.9625 -84.0067 269° West 410 472 34,400 726 Climbing Indianapolis Center
Tue 06:31:46 PM 39.9600 -84.1542 269° West 406 467 35,200 677 Climbing Indianapolis Center
Tue 06:32:48 PM 39.9567 -84.3022 268° West 405 466 35,800 387 Climbing Indianapolis Center
Tue 06:33:50 PM 39.9547 -84.4475 269° West 399 459 36,000 97 Climbing Indianapolis Center
Tue 06:34:52 PM 39.9508 -84.5922 268° West 398 458 36,000  Level Indianapolis Center
Tue 06:35:54 PM 39.9469 -84.7389 268° West 402 463 36,000  Level Indianapolis Center
Tue 06:36:56 PM 39.9439 -84.9094 269° West 400 460 36,000  Level Indianapolis Center
Tue 06:37:58 PM 39.9392 -85.0544 268° West 399 459 36,000  Level Indianapolis Center
Tue 06:39:00 PM 39.9364 -85.2011 269° West 402 463 36,000  Level Indianapolis Center
Tue 06:40:02 PM 39.9308 -85.3486 267° West 403 464 36,000  Level Indianapolis Center
Tue 06:41:04 PM 39.9275 -85.4942 268° West 401 461 36,000  Level Indianapolis Center
Tue 06:42:06 PM 39.9186 -85.6397 265° West 401 461 36,000  Level Indianapolis Center
Tue 06:43:08 PM 39.8822 -85.7817 252° West 406 467 36,000  Level Indianapolis Center
Tue 06:44:10 PM 39.8511 -85.9481 256° West 402 463 36,000  Level Indianapolis Center
Tue 06:45:12 PM 39.8272 -86.0692 256° West 403 464 36,000  Level Indianapolis Center
Tue 06:46:14 PM 39.7928 -86.2394 255° West 405 466 36,000 48 Level Indianapolis Center
Tue 06:47:17 PM 39.7717 -86.3806 259° West 401 461 36,100  Climbing Indianapolis Center
Tue 06:48:19 PM 39.7678 -86.5258 268° West 401 461 36,000 -48 Descending Indianapolis Center
Tue 06:49:21 PM 39.7606 -86.6717 266° West 404 465 36,000  Level Indianapolis Center
Tue 06:50:23 PM 39.7550 -86.8181 267° West 406 467 36,000 48 Level Indianapolis Center
Tue 06:51:25 PM 39.7478 -86.9647 266° West 406 467 36,100 48 Climbing Indianapolis Center
Tue 06:52:27 PM 39.7400 -87.1414 267° West 408 470 36,100 -48 Level Indianapolis Center
Tue 06:53:29 PM 39.7331 -87.2886 267° West 409 471 36,000  Descending Indianapolis Center
Tue 06:54:31 PM 39.7253 -87.4369 266° West 410 472 36,100  Climbing Indianapolis Center
Tue 06:55:33 PM 39.7169 -87.5825 266° West 406 467 36,000 -48 Descending Indianapolis Center
Tue 06:56:35 PM 39.7100 -87.7303 267° West 408 470 36,000  Level Indianapolis Center
Tue 06:57:37 PM 39.7019 -87.8750 266° West 406 467 36,000  Level Indianapolis Center
Tue 06:58:39 PM 39.6931 -88.0461 266° West 402 463 36,000  Level Indianapolis Center
Tue 06:59:38 PM 39.6861 -88.1650 266° West 401 461 36,000  Level Kansas City Center
Tue 07:00:39 PM 39.6767 -88.3181 265° West 402 463 36,000  Level Kansas City Center
Tue 07:01:40 PM 39.6683 -88.4639 266° West 404 465 36,000 48 Level Kansas City Center
Tue 07:02:43 PM 39.6461 -88.6094 259° West 413 475 36,100  Climbing Kansas City Center
Tue 07:03:45 PM 39.6058 -88.7469 249° West 410 472 36,000 -48 Descending Kansas City Center
Tue 07:04:47 PM 39.5661 -88.8842 249° West 408 470 36,000  Level Kansas City Center
Tue 07:05:48 PM 39.5178 -89.0492 249° West 407 468 36,000  Level Kansas City Center
Tue 07:06:50 PM 39.4769 -89.1869 249° West 409 471 36,000  Level Kansas City Center
Tue 07:07:52 PM 39.4408 -89.3103 249° West 409 471 36,000  Level Kansas City Center
Tue 07:08:52 PM 39.3922 -89.4722 249° West 406 467 36,000  Level Kansas City Center
Tue 07:09:56 PM 39.3508 -89.6097 249° West 409 471 36,000  Level Kansas City Center
Tue 07:10:56 PM 39.3097 -89.7467 249° West 411 473 36,000  Level Kansas City Center
Tue 07:12:00 PM 39.2692 -89.8817 249° West 408 470 36,000  Level Kansas City Center
Tue 07:13:00 PM 39.2278 -90.0167 248° West 407 468 36,000  Level Kansas City Center
Tue 07:14:04 PM 39.1867 -90.1511 249° West 406 467 36,000  Level Kansas City Center
Tue 07:15:05 PM 39.1369 -90.3128 248° West 408 470 36,000  Level Kansas City Center
Tue 07:16:08 PM 39.0961 -90.4478 249° West 408 470 36,000  Level Kansas City Center
Tue 07:17:09 PM 39.0536 -90.5819 248° West 410 472 36,000  Level Kansas City Center
Tue 07:18:12 PM 39.0136 -90.7131 249° West 399 459 36,000  Level Kansas City Center
Tue 07:19:13 PM 38.9725 -90.8458 248° West 401 461 36,000  Level Kansas City Center
Tue 07:20:14 PM 38.9222 -91.0036 248° West 401 461 36,000  Level Kansas City Center
Tue 07:21:16 PM 38.8806 -91.1364 248° West 402 463 36,000 49 Level Kansas City Center
Tue 07:22:17 PM 38.8358 -91.2700 247° West 406 467 36,100  Climbing Kansas City Center
Tue 07:23:21 PM 38.7936 -91.4014 248° West 405 466 36,000 -48 Descending Kansas City Center
Tue 07:24:22 PM 38.7517 -91.5308 247° West 400 460 36,000  Level Kansas City Center
Tue 07:25:23 PM 38.7028 -91.6886 248° West 398 458 36,000  Level Kansas City Center
Tue 07:26:26 PM 38.6594 -91.8164 247° West 394 453 36,000 48 Level Kansas City Center
Tue 07:27:27 PM 38.6161 -91.9469 247° West 396 456 36,100  Climbing Kansas City Center
Tue 07:28:29 PM 38.5747 -92.0767 248° West 396 456 36,000 -48 Descending Kansas City Center
Tue 07:29:33 PM 38.5317 -92.2053 247° West 395 455 36,000  Level Kansas City Center
Tue 07:30:33 PM 38.4894 -92.3336 247° West 394 453 36,000 48 Level Kansas City Center
Tue 07:31:37 PM 38.4628 -92.5014 259° West 404 465 36,100  Climbing Kansas City Center
Tue 07:32:37 PM 38.4472 -92.6375 262° West 399 459 36,000 -49 Descending Kansas City Center
Tue 07:33:39 PM 38.4300 -92.7753 261° West 395 455 36,000  Level Kansas City Center
Tue 07:34:42 PM 38.4136 -92.9147 262° West 397 457 36,000  Level Kansas City Center
Tue 07:35:44 PM 38.3961 -93.0525 261° West 396 456 36,000  Level Kansas City Center
Tue 07:36:45 PM 38.3794 -93.1883 261° West 392 451 36,000  Level Kansas City Center
Tue 07:37:48 PM 38.3592 -93.3542 261° West 394 453 36,000  Level Kansas City Center
Tue 07:38:49 PM 38.3414 -93.4947 261° West 399 459 36,000 49 Level Kansas City Center
Tue 07:39:50 PM 38.3236 -93.6350 261° West 402 463 36,100  Climbing Kansas City Center
Tue 07:40:53 PM 38.3036 -93.7778 260° West 405 466 36,000  Descending Kansas City Center
Tue 07:41:55 PM 38.2861 -93.9189 261° West 405 466 36,100  Climbing Kansas City Center
Tue 07:42:56 PM 38.2675 -94.0583 260° West 401 461 36,000 -48 Descending Kansas City Center
Tue 07:44:00 PM 38.2469 -94.2139 260° West 399 459 36,000  Level Kansas City Center
Tue 07:45:00 PM 38.2294 -94.3467 261° West 398 458 36,000 48 Level Kansas City Center
Tue 07:46:04 PM 38.2083 -94.5036 260° West 400 460 36,100 48 Climbing Kansas City Center
Tue 07:47:05 PM 38.1886 -94.6406 260° West 405 466 36,100 -50 Level Kansas City Center
Tue 07:48:05 PM 38.1706 -94.7744 260° West 403 464 36,000  Descending Kansas City Center
Tue 07:49:07 PM 38.1492 -94.9303 260° West 401 461 36,100  Climbing Kansas City Center
Tue 07:50:11 PM 38.1300 -95.0628 260° West 399 459 36,000 -48 Descending Kansas City Center
Tue 07:51:11 PM 38.1075 -95.2197 260° West 402 463 36,000 49 Level Kansas City Center
Tue 07:52:13 PM 38.0897 -95.3517 260° West 397 457 36,100  Climbing Kansas City Center
Tue 07:53:16 PM 38.0672 -95.5056 260° West 396 456 36,000 -48 Descending Kansas City Center
Tue 07:54:17 PM 38.0486 -95.6361 260° West 393 452 36,000  Level Kansas City Center
Tue 07:55:20 PM 38.0261 -95.7878 259° West 391 450 36,000  Level Kansas City Center
Tue 07:56:21 PM 38.0061 -95.9189 259° West 394 453 36,000  Level Kansas City Center
Tue 07:57:22 PM 37.9950 -96.0514 264° West 396 456 36,000  Level Kansas City Center
Tue 07:58:26 PM 37.9881 -96.1889 266° West 401 461 36,000 48 Level Kansas City Center
Tue 07:59:27 PM 37.9800 -96.3583 267° West 403 464 36,100  Climbing Kansas City Center
Tue 08:00:29 PM 37.9714 -96.5000 266° West 404 465 36,000 -48 Descending Kansas City Center
Tue 08:01:32 PM 37.9633 -96.6453 266° West 412 474 36,000  Level Kansas City Center
Tue 08:02:34 PM 37.9558 -96.7906 266° West 413 475 36,000 49 Level Kansas City Center
Tue 08:03:34 PM 37.9475 -96.9331 266° West 408 470 36,100  Climbing Kansas City Center
Tue 08:04:35 PM 37.9389 -97.0764 266° West 408 470 36,000 -48 Descending Kansas City Center
Tue 08:05:39 PM 37.9308 -97.2186 266° West 406 467 36,000  Level Kansas City Center
Tue 08:06:39 PM 37.9194 -97.3892 265° West 405 466 36,000  Level Kansas City Center
Tue 08:07:43 PM 37.9111 -97.5358 266° West 403 464 36,000  Level Kansas City Center
Tue 08:08:44 PM 37.9272 -97.6786 278° West 413 475 36,000  Level Kansas City Center
Tue 08:09:45 PM 37.9453 -97.8178 279° West 412 474 36,000  Level Kansas City Center
Tue 08:10:48 PM 37.9647 -97.9622 280° West 413 475 36,000  Level Kansas City Center
Tue 08:11:49 PM 38.0011 -98.1144 287° West 435 501 36,000 49 Level Kansas City Center
Tue 08:12:50 PM 38.0400 -98.2744 287° West 435 501 36,100  Climbing Kansas City Center
Tue 08:13:53 PM 38.0911 -98.4097 296° West 427 491 36,000 -48 Descending Kansas City Center
Tue 08:14:54 PM 38.1422 -98.5461 296° West 428 493 36,000  Level Kansas City Center
Tue 08:15:55 PM 38.1994 -98.6800 299° West 430 495 36,000  Level Kansas City Center
Tue 08:16:58 PM 38.2572 -98.8125 299° West 429 494 36,000  Level Kansas City Center
Tue 08:17:59 PM 38.2703 -98.9803 276° West 403 464 36,000  Level Kansas City Center
Tue 08:19:02 PM 38.2531 -99.1117 261° West 382 440 36,000  Level Kansas City Center
Tue 08:20:04 PM 38.2361 -99.2461 261° West 384 442 36,000 48 Level Kansas City Center
Tue 08:21:06 PM 38.2183 -99.3811 261° West 388 447 36,100 49 Climbing Kansas City Center
Tue 08:22:06 PM 38.2003 -99.5244 261° West 386 444 36,100 -48 Level Kansas City Center
Tue 08:23:10 PM 38.1789 -99.6700 259° West 378 435 36,000 -48 Descending Kansas City Center
Tue 08:24:12 PM 38.1639 -99.7975 262° West 380 437 36,000  Level Kansas City Center
Tue 08:25:12 PM 38.1439 -99.9464 260° West 383 441 36,000 48 Level Kansas City Center
Tue 08:26:16 PM 38.1258 -100.0786 260° West 392 451 36,100 48 Climbing Kansas City Center
Tue 08:27:17 PM 38.1075 -100.2108 260° West 397 457 36,100  Level Kansas City Center
Tue 08:28:17 PM 38.0872 -100.3658 261° West 399 459 36,100  Level Kansas City Center
Tue 08:29:21 PM 38.0678 -100.4992 260° West 402 463 36,100 -48 Level Kansas City Center
Tue 08:30:22 PM 38.0461 -100.6519 260° West 398 458 36,000 -49 Descending Kansas City Center
Tue 08:31:23 PM 38.0286 -100.7817 260° West 393 452 36,000  Level Kansas City Center
Tue 08:32:08 PM 38.0131 -100.8878 259° West 390 449 36,000  Level Denver Center
Tue 08:33:09 PM 37.9919 -101.0358 260° West 386 444 36,000 49 Level Denver Center
Tue 08:34:11 PM 37.9736 -101.1631 260° West 387 445 36,100  Climbing Denver Center
Tue 08:35:13 PM 37.9525 -101.3103 260° West 383 441 36,000 -49 Descending Denver Center
Tue 08:36:14 PM 37.9350 -101.4336 260° West 376 433 36,000  Level Denver Center
Tue 08:37:28 PM 37.9161 -101.5603 259° West 382 440 36,000 44 Level Denver Center
Tue 08:38:30 PM 37.8897 -101.7342 259° West 397 457 36,100 48 Climbing Denver Center
Tue 08:39:32 PM 37.8661 -101.8892 259° West 401 461 36,100 -49 Level Denver Center
Tue 08:40:33 PM 37.8464 -102.0228 259° West 403 464 36,000 -49 Descending Denver Center
Tue 08:41:35 PM 37.8264 -102.1572 259° West 407 468 36,000  Level Denver Center
Tue 08:42:36 PM 37.8039 -102.2925 258° West 410 472 36,000  Level Denver Center
Tue 08:43:38 PM 37.7806 -102.4522 260° West 415 478 36,000 48 Level Denver Center
Tue 08:44:40 PM 37.7550 -102.6036 258° West 423 487 36,100  Climbing Denver Center
Tue 08:45:42 PM 37.7314 -102.7644 260° West 418 481 36,000 -49 Descending Denver Center
Tue 08:46:43 PM 37.7089 -102.9025 258° West 420 483 36,000  Level Denver Center
Tue 08:47:45 PM 37.6825 -103.0636 258° West 421 484 36,000  Level Denver Center
Tue 08:48:47 PM 37.6608 -103.2014 259° West 419 482 36,000 49 Level Denver Center
Tue 08:49:48 PM 37.6372 -103.3411 258° West 424 488 36,100 49 Climbing Denver Center
Tue 08:50:50 PM 37.6106 -103.5031 258° West 422 486 36,100 -49 Level Denver Center
Tue 08:51:51 PM 37.5881 -103.6406 258° West 417 480 36,000 -49 Descending Denver Center
Tue 08:52:53 PM 37.5611 -103.7992 258° West 415 478 36,000  Level Denver Center
Tue 08:53:54 PM 37.5372 -103.9386 258° West 420 483 36,000  Level Denver Center
Tue 08:54:56 PM 37.5119 -104.0867 258° West 424 488 36,000 48 Level Denver Center
Tue 08:55:58 PM 37.4875 -104.2281 258° West 429 494 36,100 49 Climbing Denver Center
Tue 08:56:59 PM 37.4592 -104.3922 258° West 429 494 36,100 -49 Level Denver Center
Tue 08:58:01 PM 37.4342 -104.5319 257° West 427 491 36,000 -49 Descending Denver Center
Tue 08:59:02 PM 37.4061 -104.6933 258° West 424 488 36,000  Level Denver Center
Tue 09:00:04 PM 37.3814 -104.8325 257° West 425 489 36,000  Level Denver Center
Tue 09:01:06 PM 37.3569 -104.9714 258° West 424 488 36,000 49 Level Denver Center
Tue 09:02:07 PM 37.3269 -105.1344 257° West 429 494 36,100 49 Climbing Denver Center
Tue 09:03:09 PM 37.2994 -105.2903 258° West 432 497 36,100 -48 Level Denver Center
Tue 09:04:11 PM 37.2725 -105.4381 257° West 428 493 36,000 -49 Descending Denver Center
Tue 09:05:12 PM 37.2436 -105.5761 255° West 427 491 36,000  Level Denver Center
Tue 09:06:14 PM 37.2150 -105.7417 258° West 434 499 36,000  Level Denver Center
Tue 09:07:16 PM 37.1897 -105.8744 257° West 438 504 36,000 49 Level Denver Center
Tue 09:08:17 PM 37.1572 -106.0400 256° West 440 506 36,100  Climbing Denver Center
Tue 09:09:19 PM 37.1319 -106.1842 258° West 443 510 36,000 -48 Descending Denver Center
Tue 09:10:21 PM 37.0825 -106.3453 249° West 446 513 36,000 49 Level Denver Center
Tue 09:11:22 PM 37.0397 -106.4836 249° West 447 514 36,100 49 Climbing Denver Center
Tue 09:12:24 PM 36.9892 -106.6456 249° West 449 517 36,100 -48 Level Denver Center
Tue 09:13:26 PM 36.9469 -106.7853 249° West 450 518 36,000 -49 Descending Denver Center
Tue 09:14:27 PM 36.9036 -106.9244 249° West 450 518 36,000  Level Denver Center
Tue 09:15:29 PM 36.8519 -107.0839 248° West 444 511 36,000  Level Denver Center
Tue 09:16:31 PM 36.8078 -107.2222 248° West 448 516 36,000  Level Denver Center
Tue 09:17:32 PM 36.7561 -107.3825 248° West 447 514 36,000  Level Denver Center
Tue 09:18:46 PM 36.7117 -107.5192 248° West 447 514 36,000  Level Denver Center
Tue 09:19:48 PM 36.6531 -107.7017 248° West 445 512 36,000  Level Denver Center
Tue 09:20:49 PM 36.6092 -107.8375 248° West 443 510 36,000  Level Denver Center
Tue 09:21:51 PM 36.5567 -107.9950 248° West 443 510 36,000 48 Level Denver Center
Tue 09:22:53 PM 36.5125 -108.1308 248° West 443 510 36,100  Climbing Denver Center
Tue 09:23:54 PM 36.4592 -108.2897 247° West 446 513 36,000 -49 Descending Denver Center
Tue 09:24:56 PM 36.4153 -108.4247 248° West 444 511 36,000  Level Denver Center
Tue 09:25:57 PM 36.3622 -108.5825 247° West 445 512 36,000  Level Denver Center
Tue 09:26:59 PM 36.3175 -108.7169 248° West 445 512 36,000  Level Denver Center
Tue 09:28:00 PM 36.2714 -108.8506 247° West 445 512 36,000  Level Denver Center
Tue 09:29:02 PM 36.2192 -109.0058 247° West 446 513 36,000  Level Denver Center
Tue 09:30:03 PM 36.1661 -109.1611 247° West 445 512 36,000  Level Denver Center
Tue 09:31:05 PM 36.1200 -109.2953 247° West 445 512 36,000  Level Denver Center
Tue 09:31:23 PM 36.1053 -109.3397 248° West 445 512 36,000  Level Albuquerque Center
Tue 09:32:06 PM 36.0742 -109.4294 247° West 445 512 36,000  Level Denver Center
Tue 09:33:08 PM 36.0194 -109.5867 247° West 447 514 36,000 49 Level Denver Center
Tue 09:34:09 PM 35.9806 -109.7003 247° West 449 517 36,100  Climbing Denver Center
Tue 09:35:11 PM 35.9181 -109.8814 247° West 451 519 36,000  Descending Denver Center
Tue 09:36:13 PM 35.8711 -110.0178 247° West 451 519 36,100 75 Climbing Denver Center
Tue 09:36:31 PM 35.8503 -110.0614 239° Southwest 451 519 36,100 -76 Level Albuquerque Center
Tue 09:37:32 PM 35.8014 -110.1972 246° West 451 519 36,000 -49 Descending Albuquerque Center
Tue 09:38:34 PM 35.7450 -110.3564 246° West 455 524 36,000  Level Albuquerque Center
Tue 09:39:35 PM 35.6967 -110.4919 246° West 454 522 36,000  Level Albuquerque Center
Tue 09:40:37 PM 35.6408 -110.6494 246° West 450 518 36,000  Level Albuquerque Center
Tue 09:41:38 PM 35.5919 -110.7842 246° West 451 519 36,000  Level Albuquerque Center
Tue 09:42:39 PM 35.5358 -110.9408 246° West 450 518 36,000 49 Level Albuquerque Center
Tue 09:43:41 PM 35.4872 -111.0769 246° West 453 521 36,100 49 Climbing Albuquerque Center
Tue 09:44:42 PM 35.4378 -111.2119 246° West 453 521 36,100 -49 Level Albuquerque Center
Tue 09:45:44 PM 35.3792 -111.3686 245° Southwest 454 522 36,000 -49 Descending Albuquerque Center
Tue 09:46:45 PM 35.3264 -111.5192 247° West 468 539 36,000  Level Albuquerque Center
Tue 09:47:46 PM 35.2797 -111.6486 246° West 464 534 36,000  Level Albuquerque Center
Tue 09:48:48 PM 35.2222 -111.8033 246° West 460 529 36,000  Level Albuquerque Center
Tue 09:49:49 PM 35.1692 -111.9442 245° Southwest 458 527 36,000  Level Albuquerque Center
Tue 09:50:50 PM 35.1161 -112.0875 246° West 461 531 36,000  Level Albuquerque Center
Tue 09:51:52 PM 35.0622 -112.2300 245° Southwest 461 531 36,000 49 Level Albuquerque Center
Tue 09:52:53 PM 35.0083 -112.3733 245° Southwest 463 533 36,100 49 Climbing Albuquerque Center
Tue 09:53:54 PM 34.9550 -112.5147 245° Southwest 461 531 36,100 -49 Level Albuquerque Center
Tue 09:54:56 PM 34.9019 -112.6547 245° Southwest 456 525 36,000 -49 Descending Albuquerque Center
Tue 09:55:57 PM 34.8486 -112.7942 245° Southwest 454 522 36,000  Level Albuquerque Center
Tue 09:56:58 PM 34.7828 -112.9628 245° Southwest 457 526 36,000 49 Level Albuquerque Center
Tue 09:58:00 PM 34.7283 -113.1039 245° Southwest 460 529 36,100 49 Climbing Albuquerque Center
Tue 09:59:01 PM 34.6742 -113.2447 245° Southwest 459 528 36,100 -49 Level Albuquerque Center
Tue 10:00:02 PM 34.6192 -113.3836 244° Southwest 458 527 36,000 -49 Descending Albuquerque Center
Tue 10:01:04 PM 34.5650 -113.5219 245° Southwest 455 524 36,000  Level Albuquerque Center
Tue 10:02:05 PM 34.5117 -113.6569 244° Southwest 456 525 36,000  Level Albuquerque Center
Tue 10:03:06 PM 34.4578 -113.7958 245° Southwest 455 524 36,000 -689 Level Albuquerque Center
Tue 10:04:07 PM 34.4019 -113.9358 244° Southwest 459 528 34,600 -1,171 Descending Albuquerque Center
Tue 10:05:09 PM 34.3342 -114.1058 244° Southwest 464 534 33,600 -1,463 Descending Albuquerque Center
Tue 10:06:10 PM 34.2750 -114.2533 244° Southwest 477 549 31,600 -1,918 Descending Albuquerque Center
Tue 10:07:11 PM 34.2186 -114.3967 245° Southwest 476 548 29,700 -1,714 Descending Albuquerque Center
Tue 10:07:34 PM 34.2031 -114.4328 242° Southwest 463 533 29,200 -1,200 Descending Los Angeles Center
Tue 10:08:36 PM 34.1492 -114.5650 244° Southwest 443 510 28,000 -585 Descending Los Angeles Center
Tue 10:09:37 PM 34.0950 -114.6975 244° Southwest 440 506 28,000  Level Los Angeles Center
Tue 10:10:39 PM 34.0258 -114.8542 242° Southwest 443 510 28,000  Level Los Angeles Center
Tue 10:11:40 PM 33.9686 -114.9861 242° Southwest 444 511 28,000  Level Los Angeles Center
Tue 10:12:42 PM 33.9094 -115.1189 242° Southwest 451 519 28,000  Level Los Angeles Center
Tue 10:13:43 PM 33.8497 -115.2519 242° Southwest 453 521 28,000  Level Los Angeles Center
Tue 10:14:45 PM 33.7903 -115.3847 242° Southwest 451 519 28,000  Level Los Angeles Center
Tue 10:15:46 PM 33.7306 -115.5183 242° Southwest 454 522 28,000  Level Los Angeles Center
Tue 10:16:48 PM 33.6714 -115.6506 242° Southwest 451 519 28,000 -878 Level Los Angeles Center
Tue 10:17:49 PM 33.5953 -115.8089 240° Southwest 458 527 26,200 -1,854 Descending Los Angeles Center
Tue 10:18:51 PM 33.5233 -115.9333 235° Southwest 458 527 24,200 -1,415 Descending Los Angeles Center
Tue 10:19:52 PM 33.4514 -116.0522 234° Southwest 444 511 23,300 -1,707 Descending Los Angeles Center
Tue 10:20:54 PM 33.3819 -116.1742 236° Southwest 445 512 20,700 -2,710 Descending Los Angeles Center
Tue 10:21:56 PM 33.2947 -116.2747 224° Southwest 448 516 17,700 -2,634 Descending Los Angeles Center
Tue 10:22:57 PM 33.1864 -116.3372 206° Southwest 439 505 15,300 -2,293 Descending Los Angeles Center
Tue 10:23:59 PM 33.0881 -116.3950 206° Southwest 411 473 13,000 -1,610 Descending Los Angeles Center
Tue 10:25:00 PM 32.9914 -116.4517 206° Southwest 365 420 12,000 -488 Descending Los Angeles Center
Tue 10:26:02 PM 32.9078 -116.4986 205° Southwest 340 391 12,000 -829 Level Los Angeles Center
Tue 10:27:03 PM 32.8294 -116.5617 214° Southwest 338 389 10,300 -1,463 Descending Los Angeles Center
Tue 10:28:05 PM 32.7878 -116.6494 241° Southwest 311 358 9,000 -1,561 Descending Los Angeles Center
Tue 10:29:06 PM 32.7469 -116.7347 240° Southwest 301 346 7,100 -1,366 Descending Los Angeles Center
Tue 10:30:08 PM 32.7114 -116.8097 241° Southwest 269 310 6,200 -878 Descending Los Angeles Center
Tue 10:31:09 PM 32.6850 -116.8889 248° West 224 258 5,300 -699 Descending Los Angeles Center
Tue 10:31:51 PM 32.6667 -116.9333 244° Southwest 179 206 5,000 -500 Descending Southern California TRACON
Tue 10:32:57 PM 32.6833 -116.9833 292° West 162 186 4,400 -900 Descending Southern California TRACON
Tue 10:33:51 PM 32.7000 -117.0333 292° West 150 173 3,200 -1,263 Descending Southern California TRACON
Tue 10:34:51 PM 32.7000 -117.0667 270° West 141 162 2,000 -1,000 Descending Southern California TRACON
Tue 10:35:51 PM 32.7167 -117.1167 292° West 132 152 1,200 -767 Descending Southern California TRACON
Tue 10:36:17 PM 32.7186 -117.1269 283° West 133 153 900 -682 Descending Los Angeles Center
Tue 10:37:19 PM 32.7283 -117.1681 286° West 130 150 200 -677 Descending Los Angeles Center

Login

Don't have an account? Register now (free) for customized features, flight alerts, and more!